sensor_id;sensor_type;location;lat;lon;timestamp;P1;durP1;ratioP1;P2;durP2;ratioP2
40501;SDS011;29631;49.168;9.848;2023-06-26T00:01:26;6.22;;;5.82;;
40501;SDS011;29631;49.168;9.848;2023-06-26T00:03:54;5.95;;;5.55;;
40501;SDS011;29631;49.168;9.848;2023-06-26T00:06:20;5.68;;;5.28;;
40501;SDS011;29631;49.168;9.848;2023-06-26T00:08:49;6.10;;;5.60;;
40501;SDS011;29631;49.168;9.848;2023-06-26T00:11:15;6.28;;;5.88;;
40501;SDS011;29631;49.168;9.848;2023-06-26T00:13:41;6.35;;;5.85;;
40501;SDS011;29631;49.168;9.848;2023-06-26T00:16:07;6.10;;;5.70;;
40501;SDS011;29631;49.168;9.848;2023-06-26T00:18:33;6.13;;;5.72;;
40501;SDS011;29631;49.168;9.848;2023-06-26T00:20:58;6.32;;;5.68;;
40501;SDS011;29631;49.168;9.848;2023-06-26T00:23:24;5.57;;;5.22;;
40501;SDS011;29631;49.168;9.848;2023-06-26T00:25:50;6.05;;;5.60;;
40501;SDS011;29631;49.168;9.848;2023-06-26T00:28:15;6.38;;;5.88;;
40501;SDS011;29631;49.168;9.848;2023-06-26T00:30:41;5.72;;;5.35;;
40501;SDS011;29631;49.168;9.848;2023-06-26T00:33:07;6.05;;;5.63;;
40501;SDS011;29631;49.168;9.848;2023-06-26T00:35:33;6.18;;;5.63;;
40501;SDS011;29631;49.168;9.848;2023-06-26T00:38:00;5.85;;;5.45;;
40501;SDS011;29631;49.168;9.848;2023-06-26T00:40:26;5.57;;;5.28;;
40501;SDS011;29631;49.168;9.848;2023-06-26T00:42:52;5.88;;;5.47;;
40501;SDS011;29631;49.168;9.848;2023-06-26T00:45:18;5.93;;;5.43;;
40501;SDS011;29631;49.168;9.848;2023-06-26T00:47:44;5.65;;;5.32;;
40501;SDS011;29631;49.168;9.848;2023-06-26T00:50:10;6.13;;;5.72;;
40501;SDS011;29631;49.168;9.848;2023-06-26T00:52:36;6.25;;;5.75;;
40501;SDS011;29631;49.168;9.848;2023-06-26T00:55:02;6.32;;;5.93;;
40501;SDS011;29631;49.168;9.848;2023-06-26T00:57:29;6.00;;;5.60;;
40501;SDS011;29631;49.168;9.848;2023-06-26T00:59:56;6.05;;;5.65;;
40501;SDS011;29631;49.168;9.848;2023-06-26T01:02:22;5.95;;;5.55;;
40501;SDS011;29631;49.168;9.848;2023-06-26T01:04:51;5.82;;;5.32;;
40501;SDS011;29631;49.168;9.848;2023-06-26T01:07:18;6.20;;;5.70;;
40501;SDS011;29631;49.168;9.848;2023-06-26T01:09:46;6.18;;;5.68;;
40501;SDS011;29631;49.168;9.848;2023-06-26T01:12:12;6.45;;;5.95;;
40501;SDS011;29631;49.168;9.848;2023-06-26T01:14:39;6.18;;;5.70;;
40501;SDS011;29631;49.168;9.848;2023-06-26T01:17:05;6.07;;;5.68;;
40501;SDS011;29631;49.168;9.848;2023-06-26T01:19:32;6.25;;;5.75;;
40501;SDS011;29631;49.168;9.848;2023-06-26T01:25:32;6.65;;;6.15;;
40501;SDS011;29631;49.168;9.848;2023-06-26T01:27:49;6.97;;;6.38;;
40501;SDS011;29631;49.168;9.848;2023-06-26T01:30:17;6.53;;;6.00;;
40501;SDS011;29631;49.168;9.848;2023-06-26T01:32:44;6.65;;;6.15;;
40501;SDS011;29631;49.168;9.848;2023-06-26T01:35:11;6.68;;;6.10;;
40501;SDS011;29631;49.168;9.848;2023-06-26T01:37:38;7.10;;;6.50;;
40501;SDS011;29631;49.168;9.848;2023-06-26T01:40:04;7.20;;;6.63;;
40501;SDS011;29631;49.168;9.848;2023-06-26T01:42:31;7.13;;;6.63;;
40501;SDS011;29631;49.168;9.848;2023-06-26T01:45:19;6.82;;;6.22;;
40501;SDS011;29631;49.168;9.848;2023-06-26T01:47:52;6.68;;;6.18;;
40501;SDS011;29631;49.168;9.848;2023-06-26T01:50:22;6.63;;;6.13;;
40501;SDS011;29631;49.168;9.848;2023-06-26T01:52:54;6.88;;;6.38;;
40501;SDS011;29631;49.168;9.848;2023-06-26T01:55:51;6.93;;;6.32;;
40501;SDS011;29631;49.168;9.848;2023-06-26T01:58:23;6.85;;;6.07;;
40501;SDS011;29631;49.168;9.848;2023-06-26T02:00:51;6.45;;;6.05;;
40501;SDS011;29631;49.168;9.848;2023-06-26T02:03:17;6.55;;;6.05;;
40501;SDS011;29631;49.168;9.848;2023-06-26T02:05:42;6.13;;;5.60;;
40501;SDS011;29631;49.168;9.848;2023-06-26T02:08:09;7.53;;;6.80;;
40501;SDS011;29631;49.168;9.848;2023-06-26T02:10:35;6.55;;;6.05;;
40501;SDS011;29631;49.168;9.848;2023-06-26T02:13:01;6.63;;;6.03;;
40501;SDS011;29631;49.168;9.848;2023-06-26T02:15:27;6.57;;;6.18;;
40501;SDS011;29631;49.168;9.848;2023-06-26T02:17:52;6.32;;;5.93;;
40501;SDS011;29631;49.168;9.848;2023-06-26T02:20:18;6.75;;;6.18;;
40501;SDS011;29631;49.168;9.848;2023-06-26T02:22:44;7.00;;;6.50;;
40501;SDS011;29631;49.168;9.848;2023-06-26T02:25:10;6.55;;;6.07;;
40501;SDS011;29631;49.168;9.848;2023-06-26T02:27:37;6.80;;;6.35;;
40501;SDS011;29631;49.168;9.848;2023-06-26T02:30:03;6.63;;;6.13;;
40501;SDS011;29631;49.168;9.848;2023-06-26T02:32:29;6.22;;;5.82;;
40501;SDS011;29631;49.168;9.848;2023-06-26T02:34:55;6.50;;;6.00;;
40501;SDS011;29631;49.168;9.848;2023-06-26T02:37:21;7.30;;;6.78;;
40501;SDS011;29631;49.168;9.848;2023-06-26T02:39:47;7.00;;;6.45;;
40501;SDS011;29631;49.168;9.848;2023-06-26T02:42:12;6.75;;;6.25;;
40501;SDS011;29631;49.168;9.848;2023-06-26T02:44:38;6.78;;;6.28;;
40501;SDS011;29631;49.168;9.848;2023-06-26T02:47:04;6.90;;;6.40;;
40501;SDS011;29631;49.168;9.848;2023-06-26T02:49:30;6.35;;;5.95;;
40501;SDS011;29631;49.168;9.848;2023-06-26T02:51:55;7.78;;;7.18;;
40501;SDS011;29631;49.168;9.848;2023-06-26T02:54:21;7.13;;;6.53;;
40501;SDS011;29631;49.168;9.848;2023-06-26T02:56:47;7.13;;;6.65;;
40501;SDS011;29631;49.168;9.848;2023-06-26T02:59:13;7.07;;;6.57;;
40501;SDS011;29631;49.168;9.848;2023-06-26T03:01:39;6.95;;;6.40;;
40501;SDS011;29631;49.168;9.848;2023-06-26T03:04:04;7.25;;;6.65;;
40501;SDS011;29631;49.168;9.848;2023-06-26T03:06:30;6.68;;;6.18;;
40501;SDS011;29631;49.168;9.848;2023-06-26T03:08:56;6.78;;;6.15;;
40501;SDS011;29631;49.168;9.848;2023-06-26T03:11:21;6.65;;;6.05;;
40501;SDS011;29631;49.168;9.848;2023-06-26T03:13:47;6.85;;;6.25;;
40501;SDS011;29631;49.168;9.848;2023-06-26T03:16:13;6.68;;;6.13;;
40501;SDS011;29631;49.168;9.848;2023-06-26T03:18:39;7.05;;;6.45;;
40501;SDS011;29631;49.168;9.848;2023-06-26T03:21:04;6.90;;;6.15;;
40501;SDS011;29631;49.168;9.848;2023-06-26T03:23:30;6.60;;;6.10;;
40501;SDS011;29631;49.168;9.848;2023-06-26T03:25:56;6.78;;;6.28;;
40501;SDS011;29631;49.168;9.848;2023-06-26T03:28:22;7.00;;;6.45;;
40501;SDS011;29631;49.168;9.848;2023-06-26T03:30:47;6.75;;;6.25;;
40501;SDS011;29631;49.168;9.848;2023-06-26T03:33:13;7.60;;;7.00;;
40501;SDS011;29631;49.168;9.848;2023-06-26T03:35:39;7.05;;;6.55;;
40501;SDS011;29631;49.168;9.848;2023-06-26T03:38:05;6.80;;;6.30;;
40501;SDS011;29631;49.168;9.848;2023-06-26T03:40:30;6.53;;;6.05;;
40501;SDS011;29631;49.168;9.848;2023-06-26T03:42:56;6.95;;;6.45;;
40501;SDS011;29631;49.168;9.848;2023-06-26T03:45:22;6.97;;;6.53;;
40501;SDS011;29631;49.168;9.848;2023-06-26T03:47:48;6.68;;;6.18;;
40501;SDS011;29631;49.168;9.848;2023-06-26T03:50:15;7.03;;;6.43;;
40501;SDS011;29631;49.168;9.848;2023-06-26T03:52:41;6.35;;;5.95;;
40501;SDS011;29631;49.168;9.848;2023-06-26T03:55:07;7.88;;;6.07;;
40501;SDS011;29631;49.168;9.848;2023-06-26T03:57:33;6.32;;;5.88;;
40501;SDS011;29631;49.168;9.848;2023-06-26T03:59:59;7.25;;;6.50;;
40501;SDS011;29631;49.168;9.848;2023-06-26T04:02:25;6.70;;;6.20;;
40501;SDS011;29631;49.168;9.848;2023-06-26T04:04:51;7.18;;;6.43;;
40501;SDS011;29631;49.168;9.848;2023-06-26T04:07:17;6.75;;;6.15;;
40501;SDS011;29631;49.168;9.848;2023-06-26T04:09:44;7.13;;;6.63;;
40501;SDS011;29631;49.168;9.848;2023-06-26T04:12:10;6.47;;;6.07;;
40501;SDS011;29631;49.168;9.848;2023-06-26T04:14:35;6.93;;;6.43;;
40501;SDS011;29631;49.168;9.848;2023-06-26T04:17:01;6.97;;;6.47;;
40501;SDS011;29631;49.168;9.848;2023-06-26T04:19:28;6.75;;;6.25;;
40501;SDS011;29631;49.168;9.848;2023-06-26T04:21:56;6.38;;;5.85;;
40501;SDS011;29631;49.168;9.848;2023-06-26T04:24:22;6.68;;;6.18;;
40501;SDS011;29631;49.168;9.848;2023-06-26T04:26:48;6.35;;;5.95;;
40501;SDS011;29631;49.168;9.848;2023-06-26T04:29:14;7.90;;;7.03;;
40501;SDS011;29631;49.168;9.848;2023-06-26T04:31:39;7.32;;;6.80;;
40501;SDS011;29631;49.168;9.848;2023-06-26T04:34:05;7.07;;;6.55;;
40501;SDS011;29631;49.168;9.848;2023-06-26T04:36:31;7.03;;;6.57;;
40501;SDS011;29631;49.168;9.848;2023-06-26T04:38:58;7.15;;;6.55;;
40501;SDS011;29631;49.168;9.848;2023-06-26T04:41:24;7.15;;;6.63;;
40501;SDS011;29631;49.168;9.848;2023-06-26T04:43:50;6.65;;;6.20;;
40501;SDS011;29631;49.168;9.848;2023-06-26T04:46:16;6.97;;;6.47;;
40501;SDS011;29631;49.168;9.848;2023-06-26T04:48:42;6.40;;;6.00;;
40501;SDS011;29631;49.168;9.848;2023-06-26T04:51:09;6.78;;;6.28;;
40501;SDS011;29631;49.168;9.848;2023-06-26T04:53:36;6.63;;;6.15;;
40501;SDS011;29631;49.168;9.848;2023-06-26T04:56:02;7.00;;;6.50;;
40501;SDS011;29631;49.168;9.848;2023-06-26T04:58:28;7.38;;;6.80;;
40501;SDS011;29631;49.168;9.848;2023-06-26T05:00:54;7.38;;;6.68;;
40501;SDS011;29631;49.168;9.848;2023-06-26T05:03:21;7.53;;;6.93;;
40501;SDS011;29631;49.168;9.848;2023-06-26T05:05:47;6.40;;;6.00;;
40501;SDS011;29631;49.168;9.848;2023-06-26T05:08:17;6.65;;;6.20;;
40501;SDS011;29631;49.168;9.848;2023-06-26T05:10:47;7.00;;;6.50;;
40501;SDS011;29631;49.168;9.848;2023-06-26T05:13:13;6.43;;;5.93;;
40501;SDS011;29631;49.168;9.848;2023-06-26T05:15:44;6.78;;;6.32;;
40501;SDS011;29631;49.168;9.848;2023-06-26T05:18:10;6.80;;;6.28;;
40501;SDS011;29631;49.168;9.848;2023-06-26T05:20:36;6.25;;;5.80;;
40501;SDS011;29631;49.168;9.848;2023-06-26T05:23:03;6.75;;;6.25;;
40501;SDS011;29631;49.168;9.848;2023-06-26T05:25:30;6.03;;;5.63;;
40501;SDS011;29631;49.168;9.848;2023-06-26T05:27:57;6.10;;;5.60;;
40501;SDS011;29631;49.168;9.848;2023-06-26T05:30:24;6.78;;;6.28;;
40501;SDS011;29631;49.168;9.848;2023-06-26T05:32:50;5.95;;;5.55;;
40501;SDS011;29631;49.168;9.848;2023-06-26T05:35:18;6.07;;;5.63;;
40501;SDS011;29631;49.168;9.848;2023-06-26T05:37:48;5.75;;;5.43;;
40501;SDS011;29631;49.168;9.848;2023-06-26T05:40:15;5.95;;;5.55;;
40501;SDS011;29631;49.168;9.848;2023-06-26T05:42:43;6.78;;;6.28;;
40501;SDS011;29631;49.168;9.848;2023-06-26T05:45:09;6.28;;;5.80;;
40501;SDS011;29631;49.168;9.848;2023-06-26T05:47:35;6.43;;;5.93;;
40501;SDS011;29631;49.168;9.848;2023-06-26T05:50:01;6.18;;;5.65;;
40501;SDS011;29631;49.168;9.848;2023-06-26T05:52:28;6.63;;;6.18;;
40501;SDS011;29631;49.168;9.848;2023-06-26T05:54:54;7.28;;;6.57;;
40501;SDS011;29631;49.168;9.848;2023-06-26T05:57:25;6.68;;;6.18;;
40501;SDS011;29631;49.168;9.848;2023-06-26T05:59:53;6.75;;;6.25;;
40501;SDS011;29631;49.168;9.848;2023-06-26T06:02:19;7.20;;;6.70;;
40501;SDS011;29631;49.168;9.848;2023-06-26T06:04:45;7.97;;;7.22;;
40501;SDS011;29631;49.168;9.848;2023-06-26T06:07:11;7.50;;;6.63;;
40501;SDS011;29631;49.168;9.848;2023-06-26T06:09:37;6.80;;;6.30;;
40501;SDS011;29631;49.168;9.848;2023-06-26T06:12:03;6.97;;;6.47;;
40501;SDS011;29631;49.168;9.848;2023-06-26T06:14:31;7.15;;;6.53;;
40501;SDS011;29631;49.168;9.848;2023-06-26T06:17:00;6.72;;;6.22;;
40501;SDS011;29631;49.168;9.848;2023-06-26T06:19:26;6.75;;;6.15;;
40501;SDS011;29631;49.168;9.848;2023-06-26T06:21:52;7.32;;;6.82;;
40501;SDS011;29631;49.168;9.848;2023-06-26T06:24:18;6.63;;;6.13;;
40501;SDS011;29631;49.168;9.848;2023-06-26T06:26:44;6.88;;;6.35;;
40501;SDS011;29631;49.168;9.848;2023-06-26T06:29:09;7.30;;;6.78;;
40501;SDS011;29631;49.168;9.848;2023-06-26T06:31:35;6.90;;;6.40;;
40501;SDS011;29631;49.168;9.848;2023-06-26T06:34:01;7.13;;;6.53;;
40501;SDS011;29631;49.168;9.848;2023-06-26T06:36:27;6.53;;;6.03;;
40501;SDS011;29631;49.168;9.848;2023-06-26T06:38:53;7.00;;;6.50;;
40501;SDS011;29631;49.168;9.848;2023-06-26T06:41:19;6.30;;;5.90;;
40501;SDS011;29631;49.168;9.848;2023-06-26T06:43:45;6.40;;;5.93;;
40501;SDS011;29631;49.168;9.848;2023-06-26T06:46:11;7.10;;;6.60;;
40501;SDS011;29631;49.168;9.848;2023-06-26T06:48:37;6.82;;;6.43;;
40501;SDS011;29631;49.168;9.848;2023-06-26T06:51:03;6.78;;;6.28;;
40501;SDS011;29631;49.168;9.848;2023-06-26T06:53:29;6.90;;;6.40;;
40501;SDS011;29631;49.168;9.848;2023-06-26T06:55:56;6.32;;;5.93;;
40501;SDS011;29631;49.168;9.848;2023-06-26T06:58:22;5.93;;;5.53;;
40501;SDS011;29631;49.168;9.848;2023-06-26T07:00:48;6.45;;;6.05;;
40501;SDS011;29631;49.168;9.848;2023-06-26T07:03:16;6.32;;;5.93;;
40501;SDS011;29631;49.168;9.848;2023-06-26T07:05:41;6.75;;;6.35;;
40501;SDS011;29631;49.168;9.848;2023-06-26T07:08:07;6.60;;;6.18;;
40501;SDS011;29631;49.168;9.848;2023-06-26T07:10:33;6.47;;;5.97;;
40501;SDS011;29631;49.168;9.848;2023-06-26T07:12:59;7.22;;;6.63;;
40501;SDS011;29631;49.168;9.848;2023-06-26T07:15:25;7.47;;;6.82;;
40501;SDS011;29631;49.168;9.848;2023-06-26T07:17:50;6.82;;;6.32;;
40501;SDS011;29631;49.168;9.848;2023-06-26T07:20:17;6.43;;;6.00;;
40501;SDS011;29631;49.168;9.848;2023-06-26T07:22:43;6.47;;;6.07;;
40501;SDS011;29631;49.168;9.848;2023-06-26T07:25:10;7.20;;;6.50;;
40501;SDS011;29631;49.168;9.848;2023-06-26T07:27:40;8.38;;;5.80;;
40501;SDS011;29631;49.168;9.848;2023-06-26T07:30:06;6.60;;;6.10;;
40501;SDS011;29631;49.168;9.848;2023-06-26T07:32:36;6.95;;;6.35;;
40501;SDS011;29631;49.168;9.848;2023-06-26T07:35:02;6.95;;;6.20;;
40501;SDS011;29631;49.168;9.848;2023-06-26T07:37:29;6.38;;;5.97;;
40501;SDS011;29631;49.168;9.848;2023-06-26T07:39:55;6.07;;;5.68;;
40501;SDS011;29631;49.168;9.848;2023-06-26T07:42:20;7.40;;;6.15;;
40501;SDS011;29631;49.168;9.848;2023-06-26T07:44:46;7.10;;;6.40;;
40501;SDS011;29631;49.168;9.848;2023-06-26T07:47:12;6.97;;;6.40;;
40501;SDS011;29631;49.168;9.848;2023-06-26T07:49:38;6.47;;;5.93;;
40501;SDS011;29631;49.168;9.848;2023-06-26T07:52:05;5.97;;;5.57;;
40501;SDS011;29631;49.168;9.848;2023-06-26T07:54:31;6.60;;;6.18;;
40501;SDS011;29631;49.168;9.848;2023-06-26T07:56:58;7.13;;;6.22;;
40501;SDS011;29631;49.168;9.848;2023-06-26T07:59:27;6.38;;;5.90;;
40501;SDS011;29631;49.168;9.848;2023-06-26T08:01:55;6.72;;;6.13;;
40501;SDS011;29631;49.168;9.848;2023-06-26T08:04:23;6.03;;;5.53;;
40501;SDS011;29631;49.168;9.848;2023-06-26T08:06:52;7.07;;;5.78;;
40501;SDS011;29631;49.168;9.848;2023-06-26T08:09:20;5.68;;;5.28;;
40501;SDS011;29631;49.168;9.848;2023-06-26T08:11:49;5.60;;;5.30;;
40501;SDS011;29631;49.168;9.848;2023-06-26T08:14:15;5.93;;;5.20;;
40501;SDS011;29631;49.168;9.848;2023-06-26T08:16:42;5.65;;;5.28;;
40501;SDS011;29631;49.168;9.848;2023-06-26T08:19:09;5.88;;;5.50;;
40501;SDS011;29631;49.168;9.848;2023-06-26T08:21:36;6.22;;;5.70;;
40501;SDS011;29631;49.168;9.848;2023-06-26T08:24:02;8.82;;;5.63;;
40501;SDS011;29631;49.168;9.848;2023-06-26T08:26:28;6.32;;;5.40;;
40501;SDS011;29631;49.168;9.848;2023-06-26T08:28:54;6.78;;;5.10;;
40501;SDS011;29631;49.168;9.848;2023-06-26T08:31:19;7.20;;;5.43;;
40501;SDS011;29631;49.168;9.848;2023-06-26T08:33:45;6.25;;;5.75;;
40501;SDS011;29631;49.168;9.848;2023-06-26T08:36:11;5.75;;;5.25;;
40501;SDS011;29631;49.168;9.848;2023-06-26T08:38:37;11.68;;;5.40;;
40501;SDS011;29631;49.168;9.848;2023-06-26T08:41:06;5.70;;;5.13;;
40501;SDS011;29631;49.168;9.848;2023-06-26T08:43:32;5.28;;;4.53;;
40501;SDS011;29631;49.168;9.848;2023-06-26T08:46:00;4.97;;;4.68;;
40501;SDS011;29631;49.168;9.848;2023-06-26T08:48:29;4.65;;;4.28;;
40501;SDS011;29631;49.168;9.848;2023-06-26T08:50:57;4.93;;;4.63;;
40501;SDS011;29631;49.168;9.848;2023-06-26T08:53:33;4.50;;;4.28;;
40501;SDS011;29631;49.168;9.848;2023-06-26T08:56:30;4.75;;;4.45;;
40501;SDS011;29631;49.168;9.848;2023-06-26T08:59:00;4.85;;;4.38;;
40501;SDS011;29631;49.168;9.848;2023-06-26T09:01:26;4.85;;;4.45;;
40501;SDS011;29631;49.168;9.848;2023-06-26T09:03:52;4.53;;;4.22;;
40501;SDS011;29631;49.168;9.848;2023-06-26T09:06:18;4.38;;;4.07;;
40501;SDS011;29631;49.168;9.848;2023-06-26T09:08:44;4.22;;;3.92;;
40501;SDS011;29631;49.168;9.848;2023-06-26T09:11:10;4.53;;;4.22;;
40501;SDS011;29631;49.168;9.848;2023-06-26T09:13:36;7.75;;;4.35;;
40501;SDS011;29631;49.168;9.848;2023-06-26T09:16:06;5.20;;;4.57;;
40501;SDS011;29631;49.168;9.848;2023-06-26T09:18:33;4.43;;;4.22;;
40501;SDS011;29631;49.168;9.848;2023-06-26T09:20:59;4.95;;;4.65;;
40501;SDS011;29631;49.168;9.848;2023-06-26T09:23:25;5.05;;;4.80;;
40501;SDS011;29631;49.168;9.848;2023-06-26T09:25:51;5.03;;;4.45;;
40501;SDS011;29631;49.168;9.848;2023-06-26T09:28:17;5.13;;;4.82;;
40501;SDS011;29631;49.168;9.848;2023-06-26T09:30:44;4.70;;;4.40;;
40501;SDS011;29631;49.168;9.848;2023-06-26T09:33:18;4.60;;;4.38;;
40501;SDS011;29631;49.168;9.848;2023-06-26T09:35:45;4.65;;;4.45;;
40501;SDS011;29631;49.168;9.848;2023-06-26T09:38:13;4.50;;;4.28;;
40501;SDS011;29631;49.168;9.848;2023-06-26T09:40:40;5.07;;;4.30;;
40501;SDS011;29631;49.168;9.848;2023-06-26T09:43:06;4.45;;;4.18;;
40501;SDS011;29631;49.168;9.848;2023-06-26T09:45:35;4.15;;;3.95;;
40501;SDS011;29631;49.168;9.848;2023-06-26T09:48:01;4.25;;;4.05;;
40501;SDS011;29631;49.168;9.848;2023-06-26T09:50:28;4.60;;;4.20;;
40501;SDS011;29631;49.168;9.848;2023-06-26T09:52:55;4.10;;;3.90;;
40501;SDS011;29631;49.168;9.848;2023-06-26T09:55:21;3.97;;;3.78;;
40501;SDS011;29631;49.168;9.848;2023-06-26T09:57:47;4.25;;;3.95;;
40501;SDS011;29631;49.168;9.848;2023-06-26T10:00:15;4.35;;;4.07;;
40501;SDS011;29631;49.168;9.848;2023-06-26T10:02:41;4.50;;;4.30;;
40501;SDS011;29631;49.168;9.848;2023-06-26T10:05:07;4.70;;;4.30;;
40501;SDS011;29631;49.168;9.848;2023-06-26T10:07:33;4.60;;;4.30;;
40501;SDS011;29631;49.168;9.848;2023-06-26T10:10:00;4.70;;;4.40;;
40501;SDS011;29631;49.168;9.848;2023-06-26T10:12:29;4.10;;;3.85;;
40501;SDS011;29631;49.168;9.848;2023-06-26T10:14:56;4.65;;;4.20;;
40501;SDS011;29631;49.168;9.848;2023-06-26T10:17:24;4.40;;;4.03;;
40501;SDS011;29631;49.168;9.848;2023-06-26T10:19:54;4.97;;;4.57;;
40501;SDS011;29631;49.168;9.848;2023-06-26T10:22:24;4.25;;;4.05;;
40501;SDS011;29631;49.168;9.848;2023-06-26T10:24:55;4.22;;;4.03;;
40501;SDS011;29631;49.168;9.848;2023-06-26T10:27:25;4.30;;;4.07;;
40501;SDS011;29631;49.168;9.848;2023-06-26T10:30:02;4.30;;;4.00;;
40501;SDS011;29631;49.168;9.848;2023-06-26T10:32:31;3.83;;;3.63;;
40501;SDS011;29631;49.168;9.848;2023-06-26T10:34:58;4.45;;;4.15;;
40501;SDS011;29631;49.168;9.848;2023-06-26T10:40:26;4.45;;;4.15;;
40501;SDS011;29631;49.168;9.848;2023-06-26T10:43:06;5.32;;;4.28;;
40501;SDS011;29631;49.168;9.848;2023-06-26T10:45:36;4.20;;;3.90;;
40501;SDS011;29631;49.168;9.848;2023-06-26T10:48:12;4.47;;;4.00;;
40501;SDS011;29631;49.168;9.848;2023-06-26T10:50:39;4.05;;;3.85;;
40501;SDS011;29631;49.168;9.848;2023-06-26T10:55:47;4.32;;;4.07;;
40501;SDS011;29631;49.168;9.848;2023-06-26T10:58:26;4.20;;;3.90;;
40501;SDS011;29631;49.168;9.848;2023-06-26T11:03:40;3.67;;;3.38;;
40501;SDS011;29631;49.168;9.848;2023-06-26T11:06:12;4.32;;;4.00;;
40501;SDS011;29631;49.168;9.848;2023-06-26T11:08:48;3.58;;;3.38;;
40501;SDS011;29631;49.168;9.848;2023-06-26T11:11:14;4.30;;;4.00;;
40501;SDS011;29631;49.168;9.848;2023-06-26T11:13:41;5.22;;;3.63;;
40501;SDS011;29631;49.168;9.848;2023-06-26T11:16:09;4.00;;;3.70;;
40501;SDS011;29631;49.168;9.848;2023-06-26T11:18:38;3.88;;;3.67;;
40501;SDS011;29631;49.168;9.848;2023-06-26T11:21:10;4.20;;;3.88;;
40501;SDS011;29631;49.168;9.848;2023-06-26T11:23:39;3.83;;;3.53;;
40501;SDS011;29631;49.168;9.848;2023-06-26T11:26:15;4.43;;;4.20;;
40501;SDS011;29631;49.168;9.848;2023-06-26T11:28:56;4.22;;;3.83;;
40501;SDS011;29631;49.168;9.848;2023-06-26T11:33:55;4.22;;;3.83;;
40501;SDS011;29631;49.168;9.848;2023-06-26T11:36:23;4.00;;;3.70;;
40501;SDS011;29631;49.168;9.848;2023-06-26T11:38:59;4.90;;;4.50;;
40501;SDS011;29631;49.168;9.848;2023-06-26T11:41:34;5.57;;;3.90;;
40501;SDS011;29631;49.168;9.848;2023-06-26T11:44:07;4.47;;;4.07;;
40501;SDS011;29631;49.168;9.848;2023-06-26T11:46:35;4.93;;;4.50;;
40501;SDS011;29631;49.168;9.848;2023-06-26T11:49:07;4.90;;;4.60;;
40501;SDS011;29631;49.168;9.848;2023-06-26T11:51:33;4.47;;;4.28;;
40501;SDS011;29631;49.168;9.848;2023-06-26T11:54:03;4.43;;;4.13;;
40501;SDS011;29631;49.168;9.848;2023-06-26T11:56:29;4.70;;;4.30;;
40501;SDS011;29631;49.168;9.848;2023-06-26T11:58:59;4.90;;;4.60;;
40501;SDS011;29631;49.168;9.848;2023-06-26T12:01:37;4.90;;;4.50;;
40501;SDS011;29631;49.168;9.848;2023-06-26T12:04:10;5.07;;;4.68;;
40501;SDS011;29631;49.168;9.848;2023-06-26T12:06:40;5.05;;;4.75;;
40501;SDS011;29631;49.168;9.848;2023-06-26T12:09:11;22.98;;;20.77;;
40501;SDS011;29631;49.168;9.848;2023-06-26T12:11:39;37.00;;;33.00;;
40501;SDS011;29631;49.168;9.848;2023-06-26T12:14:07;57.15;;;47.80;;
40501;SDS011;29631;49.168;9.848;2023-06-26T12:16:34;63.08;;;53.53;;
40501;SDS011;29631;49.168;9.848;2023-06-26T12:19:05;24.48;;;22.00;;
40501;SDS011;29631;49.168;9.848;2023-06-26T12:24:10;7.75;;;7.20;;
40501;SDS011;29631;49.168;9.848;2023-06-26T12:26:43;10.90;;;10.00;;
40501;SDS011;29631;49.168;9.848;2023-06-26T12:29:18;8.05;;;7.43;;
40501;SDS011;29631;49.168;9.848;2023-06-26T12:31:48;7.65;;;7.05;;
40501;SDS011;29631;49.168;9.848;2023-06-26T12:34:17;8.02;;;6.55;;
40501;SDS011;29631;49.168;9.848;2023-06-26T12:36:50;6.45;;;6.03;;
40501;SDS011;29631;49.168;9.848;2023-06-26T12:39:17;7.47;;;6.88;;
40501;SDS011;29631;49.168;9.848;2023-06-26T12:41:47;15.00;;;13.63;;
40501;SDS011;29631;49.168;9.848;2023-06-26T12:44:29;9.82;;;8.98;;
40501;SDS011;29631;49.168;9.848;2023-06-26T12:47:02;10.23;;;7.88;;
40501;SDS011;29631;49.168;9.848;2023-06-26T12:49:35;6.85;;;6.35;;
40501;SDS011;29631;49.168;9.848;2023-06-26T12:52:09;7.35;;;6.85;;
40501;SDS011;29631;49.168;9.848;2023-06-26T12:54:40;8.40;;;7.70;;
40501;SDS011;29631;49.168;9.848;2023-06-26T12:57:08;6.18;;;5.68;;
40501;SDS011;29631;49.168;9.848;2023-06-26T12:59:36;5.40;;;5.10;;
40501;SDS011;29631;49.168;9.848;2023-06-26T13:02:02;5.68;;;5.28;;
40501;SDS011;29631;49.168;9.848;2023-06-26T13:04:29;5.95;;;5.30;;
40501;SDS011;29631;49.168;9.848;2023-06-26T13:06:55;5.70;;;5.30;;
40501;SDS011;29631;49.168;9.848;2023-06-26T13:09:25;7.97;;;7.05;;
40501;SDS011;29631;49.168;9.848;2023-06-26T13:11:54;6.18;;;5.68;;
40501;SDS011;29631;49.168;9.848;2023-06-26T13:14:20;6.43;;;5.82;;
40501;SDS011;29631;49.168;9.848;2023-06-26T13:16:46;9.02;;;8.23;;
40501;SDS011;29631;49.168;9.848;2023-06-26T13:19:12;13.18;;;11.98;;
40501;SDS011;29631;49.168;9.848;2023-06-26T13:21:38;11.75;;;10.15;;
40501;SDS011;29631;49.168;9.848;2023-06-26T13:24:04;15.93;;;14.15;;
40501;SDS011;29631;49.168;9.848;2023-06-26T13:26:30;9.30;;;8.60;;
40501;SDS011;29631;49.168;9.848;2023-06-26T13:28:57;6.57;;;6.07;;
40501;SDS011;29631;49.168;9.848;2023-06-26T13:31:23;5.78;;;5.38;;
40501;SDS011;29631;49.168;9.848;2023-06-26T13:33:49;7.35;;;6.75;;
40501;SDS011;29631;49.168;9.848;2023-06-26T13:36:17;6.40;;;5.97;;
40501;SDS011;29631;49.168;9.848;2023-06-26T13:38:43;7.28;;;6.60;;
40501;SDS011;29631;49.168;9.848;2023-06-26T13:41:10;8.32;;;7.63;;
40501;SDS011;29631;49.168;9.848;2023-06-26T13:43:36;7.72;;;7.13;;
40501;SDS011;29631;49.168;9.848;2023-06-26T13:46:02;8.10;;;7.50;;
40501;SDS011;29631;49.168;9.848;2023-06-26T13:48:28;8.30;;;7.70;;
40501;SDS011;29631;49.168;9.848;2023-06-26T13:50:54;6.45;;;5.97;;
40501;SDS011;29631;49.168;9.848;2023-06-26T13:53:21;6.38;;;5.97;;
40501;SDS011;29631;49.168;9.848;2023-06-26T13:55:47;6.32;;;5.82;;
40501;SDS011;29631;49.168;9.848;2023-06-26T13:58:13;6.13;;;5.72;;
40501;SDS011;29631;49.168;9.848;2023-06-26T14:00:39;7.50;;;7.00;;
40501;SDS011;29631;49.168;9.848;2023-06-26T14:03:06;8.60;;;7.78;;
40501;SDS011;29631;49.168;9.848;2023-06-26T14:05:36;6.22;;;5.82;;
40501;SDS011;29631;49.168;9.848;2023-06-26T14:08:02;6.03;;;5.50;;
40501;SDS011;29631;49.168;9.848;2023-06-26T14:10:30;6.22;;;5.82;;
40501;SDS011;29631;49.168;9.848;2023-06-26T14:12:58;6.75;;;5.38;;
40501;SDS011;29631;49.168;9.848;2023-06-26T14:15:24;5.40;;;5.07;;
40501;SDS011;29631;49.168;9.848;2023-06-26T14:17:50;5.68;;;5.38;;
40501;SDS011;29631;49.168;9.848;2023-06-26T14:20:16;5.78;;;5.20;;
40501;SDS011;29631;49.168;9.848;2023-06-26T14:22:46;5.85;;;5.35;;
40501;SDS011;29631;49.168;9.848;2023-06-26T14:25:12;5.82;;;5.32;;
40501;SDS011;29631;49.168;9.848;2023-06-26T14:27:39;5.85;;;5.20;;
40501;SDS011;29631;49.168;9.848;2023-06-26T14:30:05;8.73;;;5.22;;
40501;SDS011;29631;49.168;9.848;2023-06-26T14:32:32;5.25;;;4.85;;
40501;SDS011;29631;49.168;9.848;2023-06-26T14:34:59;5.32;;;4.97;;
40501;SDS011;29631;49.168;9.848;2023-06-26T14:37:25;5.32;;;4.93;;
40501;SDS011;29631;49.168;9.848;2023-06-26T14:39:51;5.03;;;4.68;;
40501;SDS011;29631;49.168;9.848;2023-06-26T14:42:17;5.18;;;4.72;;
40501;SDS011;29631;49.168;9.848;2023-06-26T14:44:43;4.72;;;4.28;;
40501;SDS011;29631;49.168;9.848;2023-06-26T14:47:11;5.60;;;4.47;;
40501;SDS011;29631;49.168;9.848;2023-06-26T14:49:39;5.07;;;4.50;;
40501;SDS011;29631;49.168;9.848;2023-06-26T14:52:05;4.85;;;4.50;;
40501;SDS011;29631;49.168;9.848;2023-06-26T14:54:31;4.88;;;4.47;;
40501;SDS011;29631;49.168;9.848;2023-06-26T14:56:58;5.43;;;4.57;;
40501;SDS011;29631;49.168;9.848;2023-06-26T14:59:25;4.10;;;3.90;;
40501;SDS011;29631;49.168;9.848;2023-06-26T15:01:51;4.80;;;4.55;;
40501;SDS011;29631;49.168;9.848;2023-06-26T15:04:16;6.05;;;5.57;;
40501;SDS011;29631;49.168;9.848;2023-06-26T15:06:42;4.80;;;4.40;;